createdAt,value
2022-12-17T00:02:35.847Z,7.53
2022-12-17T00:05:21.089Z,7.72
2022-12-17T00:08:06.593Z,9.60
2022-12-17T00:10:51.922Z,7.10
2022-12-17T00:13:39.428Z,7.95
2022-12-17T00:16:25.735Z,8.25
2022-12-17T00:19:12.846Z,8.63
2022-12-17T00:22:00.195Z,7.65
2022-12-17T00:24:45.280Z,7.32
2022-12-17T00:27:30.358Z,7.90
2022-12-17T00:30:15.773Z,7.67
2022-12-17T00:33:01.742Z,6.72
2022-12-17T00:35:48.048Z,6.95
2022-12-17T00:38:31.057Z,6.32
2022-12-17T00:41:16.145Z,7.07
2022-12-17T00:44:01.563Z,6.68
2022-12-17T00:46:47.197Z,6.07
2022-12-17T00:49:32.387Z,6.80
2022-12-17T00:52:19.123Z,7.20
2022-12-17T00:55:04.304Z,7.20
2022-12-17T00:57:49.583Z,6.65
2022-12-17T01:00:35.340Z,6.15
2022-12-17T01:03:26.205Z,6.15
2022-12-17T01:06:11.667Z,7.10
2022-12-17T01:08:58.232Z,6.70
2022-12-17T01:11:43.822Z,6.72
2022-12-17T01:14:29.183Z,7.60
2022-12-17T01:17:14.613Z,7.38
2022-12-17T01:19:59.913Z,7.17
2022-12-17T01:22:45.492Z,6.72
2022-12-17T01:25:31.970Z,6.70
2022-12-17T01:28:17.409Z,6.78
2022-12-17T01:31:13.925Z,7.35
2022-12-17T01:33:59.275Z,6.85
2022-12-17T01:36:44.832Z,6.43
2022-12-17T01:39:29.924Z,6.63
2022-12-17T01:42:16.407Z,6.78
2022-12-17T01:45:07.966Z,6.57
2022-12-17T01:47:57.618Z,6.70
2022-12-17T01:50:45.297Z,7.15
2022-12-17T01:53:30.861Z,6.53
2022-12-17T01:56:19.012Z,7.00
2022-12-17T01:59:06.195Z,5.65
2022-12-17T02:01:51.554Z,6.90
2022-12-17T02:04:37.072Z,7.45
2022-12-17T02:07:38.662Z,6.90
2022-12-17T02:10:35.132Z,6.68
2022-12-17T02:13:27.232Z,6.63
2022-12-17T02:16:20.292Z,5.75
2022-12-17T02:19:09.539Z,6.60
2022-12-17T02:21:57.665Z,6.20
2022-12-17T02:24:50.773Z,7.07
2022-12-17T02:27:38.160Z,7.05
2022-12-17T02:30:26.626Z,7.75
2022-12-17T02:33:13.334Z,6.95
2022-12-17T02:36:02.774Z,6.93
2022-12-17T02:38:49.980Z,7.38
2022-12-17T02:41:41.064Z,7.82
2022-12-17T02:44:29.440Z,7.15
2022-12-17T02:47:16.953Z,7.65
2022-12-17T02:50:02.555Z,6.77
2022-12-17T02:52:50.902Z,7.40
2022-12-17T02:55:35.940Z,6.95
2022-12-17T02:58:21.123Z,6.97
2022-12-17T03:01:22.603Z,6.93
2022-12-17T03:04:07.803Z,6.57
2022-12-17T03:06:52.874Z,6.65
2022-12-17T03:09:38.391Z,7.15
2022-12-17T03:12:23.840Z,7.10
2022-12-17T03:15:09.296Z,6.50
2022-12-17T03:17:55.938Z,6.70
2022-12-17T03:20:40.276Z,5.88
2022-12-17T03:23:29.304Z,6.80
2022-12-17T03:26:17.764Z,6.57
2022-12-17T03:29:03.080Z,7.22
2022-12-17T03:31:48.227Z,6.78
2022-12-17T03:34:34.703Z,6.60
2022-12-17T03:37:20.042Z,6.40
2022-12-17T03:40:04.544Z,6.60
2022-12-17T03:42:49.805Z,6.30
2022-12-17T03:45:35.609Z,7.20
2022-12-17T03:48:25.520Z,6.63
2022-12-17T03:51:13.044Z,5.90
2022-12-17T03:54:13.037Z,7.07
2022-12-17T03:56:58.496Z,7.17
2022-12-17T03:59:40.015Z,6.63
2022-12-17T04:02:25.545Z,6.20
2022-12-17T04:05:13.930Z,6.53
2022-12-17T04:08:04.833Z,6.68
2022-12-17T04:10:50.189Z,6.82
2022-12-17T04:13:40.407Z,6.30
2022-12-17T04:16:26.766Z,6.70
2022-12-17T04:19:12.234Z,6.80
2022-12-17T04:21:57.435Z,6.80
2022-12-17T04:24:43.915Z,6.65
2022-12-17T04:27:28.961Z,5.85
2022-12-17T04:30:14.254Z,6.93
2022-12-17T04:32:59.759Z,6.30
2022-12-17T04:35:45.149Z,6.60
2022-12-17T04:38:30.387Z,6.53
2022-12-17T04:41:16.963Z,6.00
2022-12-17T04:44:03.507Z,7.07
2022-12-17T04:46:55.382Z,7.00
2022-12-17T04:49:55.057Z,6.93
2022-12-17T04:52:40.170Z,6.97
2022-12-17T04:55:25.939Z,7.32
2022-12-17T04:58:12.323Z,6.70
2022-12-17T05:00:57.683Z,6.22
2022-12-17T05:03:42.826Z,6.75
2022-12-17T05:06:27.901Z,6.13
2022-12-17T05:09:13.412Z,7.05
2022-12-17T05:11:58.491Z,6.15
2022-12-17T05:14:45.074Z,6.80
2022-12-17T05:17:30.336Z,6.80
2022-12-17T05:20:15.709Z,6.30
2022-12-17T05:23:01.256Z,6.20
2022-12-17T05:25:46.619Z,6.97
2022-12-17T05:28:31.896Z,7.03
2022-12-17T05:31:18.992Z,5.75
2022-12-17T05:34:04.124Z,7.30
2022-12-17T05:36:49.729Z,6.63
2022-12-17T05:39:35.064Z,6.50
2022-12-17T05:42:20.503Z,6.03
2022-12-17T05:45:05.577Z,6.72
2022-12-17T05:47:51.946Z,6.43
2022-12-17T05:50:37.093Z,7.32
2022-12-17T05:53:22.658Z,6.70
2022-12-17T05:56:10.909Z,6.45
2022-12-17T05:58:59.020Z,6.27
2022-12-17T06:01:44.536Z,6.65
2022-12-17T06:04:31.035Z,6.25
2022-12-17T06:07:16.516Z,7.25
2022-12-17T06:10:01.928Z,6.68
2022-12-17T06:12:47.101Z,6.88
2022-12-17T06:15:33.007Z,7.10
2022-12-17T06:18:18.525Z,6.55
2022-12-17T06:21:05.677Z,6.50
2022-12-17T06:23:50.953Z,6.70
2022-12-17T06:26:37.652Z,6.97
2022-12-17T06:29:22.912Z,7.25
2022-12-17T06:32:08.271Z,7.10
2022-12-17T06:34:53.671Z,6.82
2022-12-17T06:37:42.241Z,6.93
2022-12-17T06:40:28.807Z,6.90
2022-12-17T06:43:15.229Z,6.70
2022-12-17T06:46:00.521Z,6.20
2022-12-17T06:48:48.971Z,6.70
2022-12-17T06:51:34.127Z,5.90
2022-12-17T06:54:20.729Z,6.95
2022-12-17T06:57:05.917Z,6.97
2022-12-17T06:59:51.624Z,5.80
2022-12-17T07:02:36.870Z,6.78
2022-12-17T07:05:25.874Z,7.23
2022-12-17T07:08:15.876Z,6.20
2022-12-17T07:11:02.654Z,6.70
2022-12-17T07:13:48.041Z,7.68
2022-12-17T07:16:33.404Z,7.45
2022-12-17T07:19:22.526Z,6.93
2022-12-17T07:22:10.853Z,7.82
2022-12-17T07:24:56.008Z,11.57
2022-12-17T07:27:42.780Z,12.30
2022-12-17T07:30:29.258Z,9.57
2022-12-17T07:33:18.623Z,8.40
2022-12-17T07:36:20.515Z,8.57
2022-12-17T07:39:05.756Z,8.13
2022-12-17T07:41:51.107Z,7.23
2022-12-17T07:44:37.750Z,7.63
2022-12-17T07:47:22.777Z,7.45
2022-12-17T07:50:08.241Z,7.05
2022-12-17T07:52:53.317Z,7.40
2022-12-17T07:55:38.650Z,7.97
2022-12-17T07:58:25.610Z,8.05
2022-12-17T08:01:11.927Z,7.95
2022-12-17T08:03:57.368Z,7.88
2022-12-17T08:06:42.394Z,6.93
2022-12-17T08:09:27.342Z,8.18
2022-12-17T08:12:12.687Z,8.23
2022-12-17T08:14:57.762Z,7.85
2022-12-17T08:17:44.723Z,7.43
2022-12-17T08:20:30.147Z,7.47
2022-12-17T08:23:20.354Z,7.80
2022-12-17T08:26:05.855Z,9.35
2022-12-17T08:28:51.407Z,10.10
2022-12-17T08:31:37.735Z,8.35
2022-12-17T08:34:24.526Z,8.48
2022-12-17T08:37:09.967Z,8.43
2022-12-17T08:39:55.261Z,8.23
2022-12-17T08:42:40.340Z,8.88
2022-12-17T08:45:26.618Z,8.75
2022-12-17T08:48:20.292Z,9.13
2022-12-17T08:51:06.701Z,9.13
2022-12-17T08:53:51.890Z,8.95
2022-12-17T08:56:37.032Z,9.65
2022-12-17T08:59:22.200Z,10.98
2022-12-17T09:02:07.759Z,13.00
2022-12-17T09:04:55.246Z,12.88
2022-12-17T09:07:41.986Z,13.03
2022-12-17T09:10:27.463Z,14.83
2022-12-17T09:13:12.930Z,14.27
2022-12-17T09:15:57.800Z,16.42
2022-12-17T09:18:43.018Z,18.45
2022-12-17T09:21:28.204Z,15.65
2022-12-17T09:24:14.577Z,13.40
2022-12-17T09:27:00.132Z,11.27
2022-12-17T09:29:45.341Z,12.57
2022-12-17T09:32:30.490Z,14.00
2022-12-17T09:35:15.866Z,13.98
2022-12-17T09:38:01.194Z,12.67
2022-12-17T09:40:48.896Z,15.80
2022-12-17T09:43:52.562Z,15.00
2022-12-17T09:46:45.253Z,14.80
2022-12-17T09:49:36.505Z,14.50
2022-12-17T09:52:33.757Z,13.27
2022-12-17T09:55:21.549Z,12.93
2022-12-17T09:58:09.009Z,16.95
2022-12-17T10:00:59.267Z,17.13
2022-12-17T10:03:48.415Z,16.85
2022-12-17T10:06:38.934Z,15.68
2022-12-17T10:09:31.265Z,16.35
2022-12-17T10:12:21.329Z,17.60
2022-12-17T10:15:07.944Z,18.25
2022-12-17T10:17:53.362Z,19.50
2022-12-17T10:20:43.677Z,18.73
2022-12-17T10:23:28.674Z,21.15
2022-12-17T10:26:15.048Z,19.58
2022-12-17T10:29:00.507Z,19.60
2022-12-17T10:31:57.057Z,21.60
2022-12-17T10:34:42.252Z,21.88
2022-12-17T10:37:37.612Z,24.25
2022-12-17T10:40:36.812Z,25.27
2022-12-17T10:43:22.842Z,24.08
2022-12-17T10:46:09.677Z,23.90
2022-12-17T10:48:56.588Z,22.73
2022-12-17T10:51:48.589Z,23.10
2022-12-17T10:54:56.228Z,23.27
2022-12-17T10:57:45.570Z,22.75
2022-12-17T11:00:47.320Z,23.33
2022-12-17T11:03:50.217Z,28.58
2022-12-17T11:06:42.863Z,24.48
2022-12-17T11:09:37.315Z,24.75
2022-12-17T11:12:30.566Z,25.87
2022-12-17T11:15:22.497Z,26.70
2022-12-17T11:18:11.597Z,27.40
2022-12-17T11:21:05.705Z,27.55
2022-12-17T11:23:54.969Z,31.98
2022-12-17T11:26:43.521Z,34.47
2022-12-17T11:29:31.529Z,33.47
2022-12-17T11:32:46.405Z,27.38
2022-12-17T11:35:43.649Z,27.45
2022-12-17T11:38:40.395Z,30.57
2022-12-17T11:41:34.480Z,29.60
2022-12-17T11:44:26.341Z,29.58
2022-12-17T11:47:23.782Z,30.45
2022-12-17T11:50:16.853Z,28.73
2022-12-17T11:53:08.739Z,26.38
2022-12-17T11:55:59.631Z,28.10
2022-12-17T11:58:53.785Z,26.60
2022-12-17T12:01:45.174Z,27.02
2022-12-17T12:04:44.726Z,28.05
2022-12-17T12:07:41.033Z,30.50
2022-12-17T12:10:48.306Z,29.60
2022-12-17T12:13:40.239Z,28.65
2022-12-17T12:16:38.096Z,34.40
2022-12-17T12:19:37.317Z,29.92
2022-12-17T12:22:30.938Z,39.43
2022-12-17T12:25:38.648Z,31.50
2022-12-17T12:28:32.375Z,29.20
2022-12-17T12:31:27.806Z,31.27
2022-12-17T12:34:27.533Z,27.65
2022-12-17T12:37:36.807Z,30.60
2022-12-17T12:40:39.915Z,28.48
2022-12-17T12:43:40.386Z,26.73
2022-12-17T12:47:12.931Z,28.42
2022-12-17T12:50:25.945Z,26.90
2022-12-17T12:53:35.768Z,25.85
2022-12-17T12:56:29.010Z,26.83
2022-12-17T12:59:17.586Z,27.10
2022-12-17T13:02:03.589Z,26.52
2022-12-17T13:05:10.398Z,25.83
2022-12-17T13:07:43.515Z,26.40
2022-12-17T13:10:30.020Z,25.55
2022-12-17T13:13:00.349Z,26.55
2022-12-17T13:15:36.844Z,26.90
2022-12-17T13:18:20.177Z,27.73
2022-12-17T13:20:59.503Z,27.98
2022-12-17T13:23:32.568Z,28.38
2022-12-17T13:26:23.643Z,28.20
2022-12-17T13:29:02.516Z,28.13
2022-12-17T13:31:41.478Z,29.00
2022-12-17T13:34:17.864Z,40.95
2022-12-17T13:36:55.119Z,36.23
2022-12-17T13:39:35.492Z,31.80
2022-12-17T13:42:04.019Z,27.92
2022-12-17T13:44:39.939Z,30.58
2022-12-17T13:47:22.995Z,29.55
2022-12-17T13:50:31.469Z,31.05
2022-12-17T13:52:42.249Z,32.55
2022-12-17T13:55:22.086Z,32.38
2022-12-17T13:57:51.515Z,33.45
2022-12-17T14:00:25.632Z,34.17
2022-12-17T14:02:54.322Z,33.67
2022-12-17T14:05:30.451Z,33.13
2022-12-17T14:08:01.199Z,32.22
2022-12-17T14:10:30.901Z,32.05
2022-12-17T14:13:06.112Z,33.97
2022-12-17T14:15:34.228Z,36.97
2022-12-17T14:18:03.443Z,35.72
2022-12-17T14:20:33.394Z,31.55
2022-12-17T14:23:03.867Z,32.23
2022-12-17T14:25:37.884Z,29.80
2022-12-17T14:28:08.237Z,31.80
2022-12-17T14:30:46.243Z,31.35
2022-12-17T14:33:30.736Z,31.35
2022-12-17T14:36:01.644Z,30.38
2022-12-17T14:38:38.743Z,30.13
2022-12-17T14:41:26.743Z,27.55
2022-12-17T14:43:59.617Z,27.90
2022-12-17T14:46:27.929Z,29.27
2022-12-17T14:49:03.735Z,30.10
2022-12-17T14:51:34.678Z,32.10
2022-12-17T14:54:19.487Z,32.95
2022-12-17T14:56:50.515Z,31.80
2022-12-17T14:59:25.761Z,33.13
2022-12-17T15:02:00.428Z,33.08
2022-12-17T15:04:29.400Z,31.60
2022-12-17T15:06:57.150Z,31.58
2022-12-17T15:09:25.476Z,31.05
2022-12-17T15:11:54.754Z,29.15
2022-12-17T15:14:22.826Z,28.52
2022-12-17T15:16:50.484Z,28.08
2022-12-17T15:19:18.116Z,28.17
2022-12-17T15:21:45.816Z,29.58
2022-12-17T15:24:16.840Z,29.15
2022-12-17T15:26:44.463Z,29.63
2022-12-17T15:29:13.697Z,38.15
2022-12-17T15:31:41.517Z,32.63
2022-12-17T15:34:12.008Z,31.45
2022-12-17T15:36:39.902Z,29.27
2022-12-17T15:39:08.606Z,29.40
2022-12-17T15:41:53.516Z,30.70
2022-12-17T15:44:22.518Z,29.20
2022-12-17T15:46:50.116Z,28.58
2022-12-17T15:49:17.762Z,30.33
2022-12-17T15:51:45.322Z,31.80
2022-12-17T15:54:12.921Z,32.10
2022-12-17T15:56:40.672Z,32.88
2022-12-17T15:59:10.417Z,34.47
2022-12-17T16:01:39.535Z,39.70
2022-12-17T16:04:13.819Z,35.75
2022-12-17T16:06:44.617Z,33.50
2022-12-17T16:09:12.373Z,34.58
2022-12-17T16:11:40.305Z,34.75
2022-12-17T16:14:07.962Z,37.87
2022-12-17T16:16:35.623Z,39.33
2022-12-17T16:19:05.396Z,42.88
2022-12-17T16:21:33.057Z,42.10
2022-12-17T16:24:00.638Z,41.33
2022-12-17T16:26:28.862Z,35.37
2022-12-17T16:28:58.614Z,59.73
2022-12-17T16:31:26.920Z,41.23
2022-12-17T16:33:54.718Z,39.03
2022-12-17T16:36:24.557Z,43.25
2022-12-17T16:38:54.068Z,45.72
2022-12-17T16:41:23.060Z,93.25
2022-12-17T16:43:51.382Z,45.72
2022-12-17T16:46:26.419Z,64.47
2022-12-17T16:48:55.155Z,53.40
2022-12-17T16:51:29.323Z,61.47
2022-12-17T16:53:57.766Z,41.75
2022-12-17T16:56:28.353Z,39.22
2022-12-17T16:58:56.892Z,32.72
2022-12-17T17:01:26.936Z,35.22
2022-12-17T17:03:55.346Z,34.53
2022-12-17T17:06:28.944Z,34.63
2022-12-17T17:08:59.769Z,36.70
2022-12-17T17:11:27.445Z,38.80
2022-12-17T17:13:55.795Z,37.85
2022-12-17T17:16:25.268Z,37.20
2022-12-17T17:18:53.678Z,33.00
2022-12-17T17:21:28.692Z,30.63
2022-12-17T17:23:59.750Z,29.75
2022-12-17T17:26:28.521Z,31.13
2022-12-17T17:28:56.403Z,33.83
2022-12-17T17:31:46.479Z,37.30
2022-12-17T17:34:14.227Z,33.75
2022-12-17T17:36:43.878Z,38.05
2022-12-17T17:39:13.999Z,34.20
2022-12-17T17:41:41.766Z,53.03
2022-12-17T17:44:12.314Z,36.22
2022-12-17T17:46:41.226Z,34.08
2022-12-17T17:49:10.583Z,32.88
2022-12-17T17:54:30.164Z,37.53
2022-12-17T17:56:57.810Z,36.38
2022-12-17T17:59:32.866Z,44.88
2022-12-17T18:02:01.833Z,62.65
2022-12-17T18:04:30.948Z,33.08
2022-12-17T18:09:47.795Z,54.47
2022-12-17T18:12:33.206Z,39.97
2022-12-17T18:15:18.178Z,39.72
2022-12-17T18:17:48.073Z,44.08
2022-12-17T18:20:16.820Z,61.72
2022-12-17T18:22:46.736Z,53.15
2022-12-17T18:25:16.824Z,89.47
2022-12-17T18:27:44.838Z,47.00
2022-12-17T18:30:13.144Z,46.72
2022-12-17T18:32:40.877Z,51.28
2022-12-17T18:35:09.533Z,37.05
2022-12-17T18:37:37.544Z,35.10
2022-12-17T18:40:05.764Z,30.85
2022-12-17T18:42:52.304Z,30.85
2022-12-17T18:45:20.015Z,35.45
2022-12-17T18:47:47.888Z,31.08
2022-12-17T18:50:15.599Z,29.73
2022-12-17T18:52:43.473Z,65.03
2022-12-17T18:55:11.343Z,61.80
2022-12-17T18:57:40.382Z,54.13
2022-12-17T19:00:09.290Z,110.57
2022-12-17T19:02:37.085Z,58.15
2022-12-17T19:05:05.474Z,40.80
2022-12-17T19:07:33.198Z,60.75
2022-12-17T19:10:00.863Z,41.78
2022-12-17T19:12:28.473Z,33.78
2022-12-17T19:14:57.560Z,125.68
2022-12-17T19:17:26.387Z,48.00
2022-12-17T19:19:54.392Z,34.25
2022-12-17T19:22:26.756Z,32.78
2022-12-17T19:24:55.234Z,34.17
2022-12-17T19:27:22.980Z,35.28
2022-12-17T19:29:55.210Z,34.63
2022-12-17T19:32:25.001Z,38.00
2022-12-17T19:34:52.840Z,39.57
2022-12-17T19:37:20.609Z,38.30
2022-12-17T19:39:48.796Z,39.03
2022-12-17T19:42:25.562Z,38.58
2022-12-17T19:44:54.328Z,37.80
2022-12-17T19:47:30.663Z,38.38
2022-12-17T19:50:00.430Z,38.45
2022-12-17T19:52:28.805Z,38.38
2022-12-17T19:54:57.310Z,35.45
2022-12-17T19:57:25.211Z,33.47
2022-12-17T19:59:53.143Z,35.38
2022-12-17T20:02:21.186Z,34.38
2022-12-17T20:04:54.147Z,32.22
2022-12-17T20:07:31.614Z,32.50
2022-12-17T20:10:00.307Z,32.35
2022-12-17T20:12:28.883Z,32.05
2022-12-17T20:15:23.774Z,32.13
2022-12-17T20:17:52.680Z,32.85
2022-12-17T20:20:29.566Z,33.50
2022-12-17T20:23:02.065Z,33.53
2022-12-17T20:25:43.925Z,32.47
2022-12-17T20:28:12.638Z,39.80
2022-12-17T20:30:45.879Z,34.75
2022-12-17T20:33:14.422Z,34.10
2022-12-17T20:35:44.108Z,34.10
2022-12-17T20:38:12.325Z,33.75
2022-12-17T20:40:41.517Z,33.70
2022-12-17T20:43:22.881Z,33.85
2022-12-17T20:45:51.623Z,33.33
2022-12-17T20:48:19.858Z,33.90
2022-12-17T20:50:49.986Z,35.50
2022-12-17T20:53:27.558Z,34.25
2022-12-17T20:56:06.110Z,33.33
2022-12-17T20:58:35.024Z,33.42
2022-12-17T21:01:05.238Z,34.00
2022-12-17T21:03:33.776Z,35.50
2022-12-17T21:06:11.699Z,37.97
2022-12-17T21:08:47.723Z,37.88
2022-12-17T21:11:18.525Z,34.72
2022-12-17T21:13:47.565Z,31.87
2022-12-17T21:16:17.967Z,29.83
2022-12-17T21:18:54.614Z,29.05
2022-12-17T21:21:28.764Z,31.23
2022-12-17T21:23:59.543Z,32.13
2022-12-17T21:26:31.047Z,38.10
2022-12-17T21:29:03.664Z,32.88
2022-12-17T21:31:36.602Z,31.15
2022-12-17T21:34:08.820Z,28.80
2022-12-17T21:36:40.218Z,30.00
2022-12-17T21:39:09.890Z,28.75
2022-12-17T21:41:46.895Z,28.10
2022-12-17T21:44:18.573Z,29.80
2022-12-17T21:46:50.345Z,30.52
2022-12-17T21:49:21.627Z,28.67
2022-12-17T21:51:50.912Z,29.42
2022-12-17T21:54:19.988Z,27.30
2022-12-17T21:56:48.331Z,24.73
2022-12-17T21:59:16.040Z,25.00
2022-12-17T22:01:44.139Z,24.40
2022-12-17T22:04:12.205Z,25.23
2022-12-17T22:06:44.765Z,25.33
2022-12-17T22:09:51.946Z,26.33
2022-12-17T22:12:27.261Z,27.90
2022-12-17T22:14:54.968Z,28.15
2022-12-17T22:17:23.098Z,27.13
2022-12-17T22:19:50.957Z,26.40
2022-12-17T22:22:18.675Z,26.35
2022-12-17T22:24:47.711Z,27.15
2022-12-17T22:27:15.513Z,27.45
2022-12-17T22:30:00.674Z,27.27
2022-12-17T22:32:45.973Z,27.07
2022-12-17T22:36:20.660Z,28.65
2022-12-17T22:39:16.324Z,27.52
2022-12-17T22:44:31.456Z,30.17
2022-12-17T22:44:44.171Z,30.77
2022-12-17T22:46:26.476Z,31.42
2022-12-17T22:48:54.102Z,30.40
2022-12-17T22:51:29.808Z,29.83
2022-12-17T22:54:09.825Z,30.02
2022-12-17T22:57:22.153Z,31.05
2022-12-17T22:59:28.993Z,31.73
2022-12-17T23:01:56.677Z,31.05
2022-12-17T23:04:24.568Z,29.92
2022-12-17T23:06:52.372Z,30.40
2022-12-17T23:09:20.787Z,28.37
2022-12-17T23:11:50.262Z,33.50
2022-12-17T23:14:19.065Z,31.45
2022-12-17T23:16:47.025Z,30.55
2022-12-17T23:19:14.804Z,32.25
2022-12-17T23:21:42.473Z,32.22
2022-12-17T23:24:10.483Z,32.35
2022-12-17T23:26:39.855Z,32.38
2022-12-17T23:29:19.130Z,32.33
2022-12-17T23:31:47.567Z,30.70
2022-12-17T23:34:15.439Z,30.90
2022-12-17T23:36:43.358Z,34.92
2022-12-17T23:39:11.139Z,29.25
2022-12-17T23:41:38.826Z,28.73
2022-12-17T23:44:07.852Z,29.73
2022-12-17T23:46:35.534Z,29.13
2022-12-17T23:49:05.531Z,29.57
2022-12-17T23:51:34.073Z,29.92
2022-12-17T23:54:01.727Z,30.00
2022-12-17T23:56:29.376Z,28.43
2022-12-17T23:58:58.979Z,28.73
